createdAt,value
2017-07-17T00:00:27.575Z,98.20
2017-07-17T00:02:55.021Z,98.20
2017-07-17T00:05:22.466Z,98.20
2017-07-17T00:07:50.031Z,98.20
2017-07-17T00:10:17.468Z,98.20
2017-07-17T00:12:44.906Z,98.20
2017-07-17T00:15:12.777Z,98.20
2017-07-17T00:17:40.220Z,98.20
2017-07-17T00:20:08.052Z,98.20
2017-07-17T00:22:35.523Z,98.20
2017-07-17T00:25:02.963Z,98.20
2017-07-17T00:27:30.404Z,98.20
2017-07-17T00:29:57.872Z,98.20
2017-07-17T00:32:25.488Z,98.20
2017-07-17T00:34:52.928Z,98.20
2017-07-17T00:37:20.584Z,98.20
2017-07-17T00:39:48.417Z,98.20
2017-07-17T00:42:15.861Z,98.20
2017-07-17T00:44:43.328Z,98.20
2017-07-17T00:47:10.771Z,98.20
2017-07-17T00:49:38.219Z,98.20
2017-07-17T00:52:05.669Z,98.20
2017-07-17T00:54:33.112Z,98.20
2017-07-17T00:57:00.562Z,98.20
2017-07-17T00:59:28.356Z,98.20
2017-07-17T01:01:55.800Z,98.20
2017-07-17T01:04:23.239Z,98.20
2017-07-17T01:06:50.715Z,98.20
2017-07-17T01:09:18.163Z,98.20
2017-07-17T01:11:45.608Z,98.20
2017-07-17T01:14:13.089Z,98.20
2017-07-17T01:16:40.527Z,98.20
2017-07-17T01:19:07.972Z,98.20
2017-07-17T01:21:35.448Z,98.20
2017-07-17T01:24:02.891Z,98.20
2017-07-17T01:26:31.154Z,98.20
2017-07-17T01:28:58.620Z,98.20
2017-07-17T01:31:26.330Z,98.20
2017-07-17T01:33:54.172Z,98.20
2017-07-17T01:36:21.629Z,98.20
2017-07-17T01:38:49.072Z,98.20
2017-07-17T01:41:16.525Z,98.20
2017-07-17T01:43:44.288Z,98.20
2017-07-17T01:46:11.733Z,98.20
2017-07-17T01:48:39.183Z,98.20
2017-07-17T01:51:06.860Z,98.20
2017-07-17T01:53:34.299Z,98.20
2017-07-17T01:56:01.744Z,98.20
2017-07-17T01:58:29.203Z,98.20
2017-07-17T02:00:56.644Z,98.20
2017-07-17T02:03:24.086Z,98.20
2017-07-17T02:05:51.667Z,98.20
2017-07-17T02:08:19.460Z,98.20
2017-07-17T02:10:46.897Z,98.20
2017-07-17T02:13:14.669Z,98.20
2017-07-17T02:15:42.128Z,98.20
2017-07-17T02:18:09.564Z,98.20
2017-07-17T02:20:37.125Z,98.20
2017-07-17T02:23:04.564Z,98.20
2017-07-17T02:25:32.013Z,98.20
2017-07-17T02:27:59.477Z,98.20
2017-07-17T02:30:26.924Z,98.20
2017-07-17T02:32:54.371Z,98.20
2017-07-17T02:35:22.087Z,98.20
2017-07-17T02:37:49.536Z,98.20
2017-07-17T02:40:16.996Z,98.20
2017-07-17T02:42:44.468Z,98.20
2017-07-17T02:45:12.316Z,98.20
2017-07-17T02:47:39.760Z,98.20
2017-07-17T02:50:07.232Z,98.20
2017-07-17T02:52:34.677Z,98.20
2017-07-17T02:55:02.123Z,98.20
2017-07-17T02:57:29.584Z,98.20
2017-07-17T02:59:57.035Z,98.20
2017-07-17T03:02:24.486Z,98.20
2017-07-17T03:04:52.244Z,98.20
2017-07-17T03:07:19.695Z,98.20
2017-07-17T03:09:47.135Z,98.20
2017-07-17T03:12:14.600Z,98.20
2017-07-17T03:14:42.045Z,98.20
2017-07-17T03:17:09.503Z,98.20
2017-07-17T03:19:37.591Z,98.20
2017-07-17T03:22:05.039Z,98.20
2017-07-17T03:24:32.487Z,98.20
2017-07-17T03:26:59.960Z,98.20
2017-07-17T03:29:27.405Z,98.20
2017-07-17T03:31:54.847Z,98.20
2017-07-17T03:34:22.408Z,98.20
2017-07-17T03:36:49.855Z,98.20
2017-07-17T03:39:17.315Z,98.20
2017-07-17T03:41:44.765Z,98.20
2017-07-17T03:44:12.220Z,98.20
2017-07-17T03:46:39.673Z,98.20
2017-07-17T03:49:07.364Z,98.20
2017-07-17T03:51:34.796Z,98.20
2017-07-17T03:54:02.235Z,98.20
2017-07-17T03:56:29.707Z,98.20
2017-07-17T03:58:57.155Z,98.20
2017-07-17T04:01:24.605Z,98.20
2017-07-17T04:03:52.086Z,98.20
2017-07-17T04:06:19.528Z,98.20
2017-07-17T04:08:46.977Z,98.20
2017-07-17T04:11:14.441Z,98.20
2017-07-17T04:13:41.883Z,98.20
2017-07-17T04:16:09.340Z,98.20
2017-07-17T04:18:37.028Z,98.20
2017-07-17T04:21:04.477Z,98.20
2017-07-17T04:23:31.914Z,98.20
2017-07-17T04:25:59.596Z,98.20
2017-07-17T04:28:27.045Z,98.20
2017-07-17T04:30:54.479Z,98.20
2017-07-17T04:33:21.956Z,98.20
2017-07-17T04:35:49.403Z,98.20
2017-07-17T04:38:16.843Z,98.20
2017-07-17T04:40:44.634Z,98.20
2017-07-17T04:43:12.075Z,98.20
2017-07-17T04:45:39.519Z,98.20
2017-07-17T04:48:07.097Z,98.20
2017-07-17T04:50:34.544Z,98.20
2017-07-17T04:53:01.987Z,98.20
2017-07-17T04:55:29.451Z,98.20
2017-07-17T04:57:56.904Z,98.20
2017-07-17T05:00:24.352Z,98.20
2017-07-17T05:02:51.818Z,98.20
2017-07-17T05:05:19.265Z,98.20
2017-07-17T05:07:47.023Z,98.20
2017-07-17T05:10:15.304Z,98.20
2017-07-17T05:12:42.750Z,98.20
2017-07-17T05:15:10.211Z,98.20
2017-07-17T05:17:37.684Z,98.20
2017-07-17T05:20:05.125Z,98.20
2017-07-17T05:22:32.571Z,98.20
2017-07-17T05:25:00.340Z,98.20
2017-07-17T05:27:27.792Z,98.20
2017-07-17T05:29:55.249Z,98.20
2017-07-17T05:32:22.736Z,98.20
2017-07-17T05:34:51.100Z,98.20
2017-07-17T05:37:18.544Z,98.20
2017-07-17T05:39:46.275Z,98.20
2017-07-17T05:42:13.737Z,98.20
2017-07-17T05:44:41.180Z,98.20
2017-07-17T05:47:09.009Z,98.20
2017-07-17T05:49:36.452Z,98.20
2017-07-17T05:52:03.892Z,98.20
2017-07-17T05:54:31.361Z,98.20
2017-07-17T05:56:58.802Z,98.20
2017-07-17T05:59:26.264Z,98.20
2017-07-17T06:01:53.921Z,98.20
2017-07-17T06:04:21.363Z,98.20
2017-07-17T06:06:48.807Z,98.20
2017-07-17T06:09:16.374Z,98.20
2017-07-17T06:11:43.809Z,98.20
2017-07-17T06:14:11.254Z,98.20
2017-07-17T06:16:38.712Z,98.20
2017-07-17T06:19:06.156Z,98.20
2017-07-17T06:21:34.019Z,98.20
2017-07-17T06:24:01.900Z,98.20
2017-07-17T06:26:29.324Z,98.20
2017-07-17T06:28:56.785Z,98.20
2017-07-17T06:31:24.266Z,98.20
2017-07-17T06:33:51.698Z,98.20
2017-07-17T06:36:19.544Z,98.20
2017-07-17T06:38:47.011Z,98.20
2017-07-17T06:41:15.274Z,98.20
2017-07-17T06:43:42.724Z,98.20
2017-07-17T06:46:10.476Z,98.20
2017-07-17T06:48:37.915Z,98.20
2017-07-17T06:51:05.366Z,98.20
2017-07-17T06:53:33.039Z,98.20
2017-07-17T06:56:00.484Z,98.20
2017-07-17T06:58:27.944Z,98.20
2017-07-17T07:00:55.412Z,98.20
2017-07-17T07:03:22.852Z,98.20
2017-07-17T07:05:50.297Z,98.20
2017-07-17T07:08:17.758Z,98.20
2017-07-17T07:10:45.202Z,98.20
2017-07-17T07:13:12.647Z,98.20
2017-07-17T07:15:40.210Z,98.20
2017-07-17T07:18:07.665Z,98.20
2017-07-17T07:20:35.114Z,98.20
2017-07-17T07:23:02.596Z,98.20
2017-07-17T07:25:30.549Z,98.20
2017-07-17T07:27:57.981Z,98.20
2017-07-17T07:30:25.645Z,98.20
2017-07-17T07:32:53.125Z,98.20
2017-07-17T07:35:20.572Z,98.20
2017-07-17T07:37:48.362Z,98.20
2017-07-17T07:40:15.795Z,98.20
2017-07-17T07:42:43.349Z,98.20
2017-07-17T07:45:11.910Z,98.20
2017-07-17T07:47:39.353Z,98.20
2017-07-17T07:50:06.797Z,98.20
2017-07-17T07:52:34.907Z,98.20
2017-07-17T07:55:02.358Z,98.20
2017-07-17T07:57:29.810Z,98.20
2017-07-17T07:59:57.716Z,98.20
2017-07-17T08:02:25.160Z,98.20
2017-07-17T08:04:52.909Z,98.20
2017-07-17T08:07:20.467Z,98.20
2017-07-17T08:09:47.912Z,98.20
2017-07-17T08:12:15.343Z,98.20
2017-07-17T08:14:43.158Z,98.20
2017-07-17T08:17:10.599Z,98.20
2017-07-17T08:19:38.570Z,98.20
2017-07-17T08:22:06.031Z,97.10
2017-07-17T08:24:33.477Z,97.30
2017-07-17T08:27:00.938Z,96.00
2017-07-17T08:29:28.462Z,94.50
2017-07-17T08:31:55.907Z,91.90
2017-07-17T08:34:23.360Z,91.60
2017-07-17T08:36:51.171Z,92.60
2017-07-17T08:39:18.608Z,93.20
2017-07-17T08:41:46.074Z,94.30
2017-07-17T08:44:14.051Z,92.60
2017-07-17T08:46:41.494Z,94.00
2017-07-17T08:49:08.945Z,93.90
2017-07-17T08:51:36.411Z,91.00
2017-07-17T08:54:03.874Z,89.90
2017-07-17T08:56:31.308Z,91.60
2017-07-17T08:58:58.775Z,90.90
2017-07-17T09:01:26.208Z,87.00
2017-07-17T09:03:53.660Z,87.90
2017-07-17T09:06:21.116Z,87.20
2017-07-17T09:08:48.552Z,86.80
2017-07-17T09:11:15.992Z,86.30
2017-07-17T09:13:44.145Z,89.40
2017-07-17T09:16:11.577Z,89.40
2017-07-17T09:18:39.018Z,89.80
2017-07-17T09:21:07.003Z,90.60
2017-07-17T09:23:34.453Z,91.30
2017-07-17T09:26:01.906Z,92.50
2017-07-17T09:28:29.364Z,93.90
2017-07-17T09:30:56.816Z,92.00
2017-07-17T09:33:24.273Z,90.50
2017-07-17T09:35:51.756Z,88.70
2017-07-17T09:38:19.609Z,87.70
2017-07-17T09:40:47.048Z,87.80
2017-07-17T09:43:14.539Z,87.10
2017-07-17T09:45:42.390Z,90.10
2017-07-17T09:48:09.851Z,90.10
2017-07-17T09:50:37.591Z,90.40
2017-07-17T09:53:05.022Z,90.40
2017-07-17T09:55:32.467Z,90.80
2017-07-17T09:57:59.947Z,89.00
2017-07-17T10:00:27.385Z,89.20
2017-07-17T10:02:54.843Z,88.10
2017-07-17T10:05:22.643Z,87.30
2017-07-17T10:07:50.114Z,83.20
2017-07-17T10:10:17.951Z,82.90
2017-07-17T10:12:45.623Z,82.90
2017-07-17T10:15:13.079Z,83.80
2017-07-17T10:17:40.539Z,85.20
2017-07-17T10:20:08.303Z,85.60
2017-07-17T10:22:35.750Z,85.00
2017-07-17T10:25:03.206Z,85.10
2017-07-17T10:27:30.673Z,85.90
2017-07-17T10:29:58.131Z,87.50
2017-07-17T10:32:25.565Z,87.50
2017-07-17T10:34:53.025Z,87.00
2017-07-17T10:37:20.480Z,84.60
2017-07-17T10:39:47.917Z,84.20
2017-07-17T10:42:15.824Z,82.30
2017-07-17T10:44:43.657Z,81.30
2017-07-17T10:47:11.102Z,81.40
2017-07-17T10:49:38.599Z,80.80
2017-07-17T10:52:06.062Z,80.50
2017-07-17T10:54:33.528Z,79.40
2017-07-17T10:57:01.002Z,80.90
2017-07-17T10:59:28.461Z,80.90
2017-07-17T11:01:55.909Z,82.00
2017-07-17T11:04:23.979Z,82.90
2017-07-17T11:06:51.412Z,83.10
2017-07-17T11:09:18.852Z,82.20
2017-07-17T11:11:46.712Z,81.30
2017-07-17T11:14:15.181Z,79.90
2017-07-17T11:16:42.640Z,79.90
2017-07-17T11:19:10.534Z,79.40
2017-07-17T11:21:37.973Z,79.40
2017-07-17T11:24:05.407Z,79.80
2017-07-17T11:26:33.143Z,79.60
2017-07-17T11:29:00.997Z,82.50
2017-07-17T11:31:28.442Z,80.70
2017-07-17T11:33:56.132Z,80.80
2017-07-17T11:36:23.574Z,80.50
2017-07-17T11:38:51.023Z,81.20
2017-07-17T11:41:18.580Z,78.10
2017-07-17T11:43:46.030Z,75.80
2017-07-17T11:56:25.340Z,69.00
2017-07-17T11:58:52.792Z,68.70
2017-07-17T12:01:20.235Z,71.20
2017-07-17T12:03:48.043Z,72.10
2017-07-17T12:06:16.188Z,74.70
2017-07-17T12:08:43.625Z,74.70
2017-07-17T12:11:11.070Z,76.80
2017-07-17T12:13:38.847Z,77.30
2017-07-17T12:16:06.275Z,77.00
2017-07-17T12:18:33.716Z,77.70
2017-07-17T12:21:01.168Z,74.10
2017-07-17T12:23:28.605Z,72.40
2017-07-17T12:25:56.445Z,76.60
2017-07-17T12:28:24.170Z,76.60
2017-07-17T12:30:51.604Z,76.40
2017-07-17T12:33:19.047Z,76.30
2017-07-17T12:35:47.748Z,77.70
2017-07-17T12:38:15.186Z,77.70
2017-07-17T12:40:43.015Z,78.60
2017-07-17T12:43:10.471Z,78.60
2017-07-17T12:45:37.913Z,79.30
2017-07-17T12:48:05.352Z,80.30
2017-07-17T12:50:32.820Z,81.10
2017-07-17T12:53:00.256Z,81.10
2017-07-17T12:55:27.702Z,81.90
2017-07-17T12:57:55.184Z,81.80
2017-07-17T13:00:22.634Z,77.70
2017-07-17T13:02:50.118Z,76.20
2017-07-17T13:05:17.591Z,77.20
2017-07-17T13:07:45.024Z,73.70
2017-07-17T13:10:12.465Z,74.00
2017-07-17T13:12:40.128Z,70.60
2017-07-17T13:15:07.573Z,72.50
2017-07-17T13:17:35.019Z,76.50
2017-07-17T13:20:02.490Z,77.90
2017-07-17T13:22:29.950Z,73.10
2017-07-17T13:24:57.400Z,74.60
2017-07-17T13:27:24.860Z,67.60
2017-07-17T13:29:52.300Z,62.90
2017-07-17T13:32:20.057Z,60.90
2017-07-17T13:34:47.754Z,65.10
2017-07-17T13:37:15.204Z,62.40
2017-07-17T13:39:42.652Z,61.30
2017-07-17T13:42:10.439Z,58.00
2017-07-17T13:44:37.880Z,55.00
2017-07-17T13:47:05.319Z,60.40
2017-07-17T13:49:32.885Z,60.40
2017-07-17T13:52:00.354Z,56.60
2017-07-17T13:54:27.792Z,56.20
2017-07-17T13:56:55.349Z,63.60
2017-07-17T13:59:22.793Z,68.40
2017-07-17T14:01:50.541Z,68.80
2017-07-17T14:04:18.002Z,70.50
2017-07-17T14:06:46.316Z,72.70
2017-07-17T14:09:13.752Z,72.50
2017-07-17T14:11:41.310Z,73.20
2017-07-17T14:14:08.754Z,73.40
2017-07-17T14:16:37.205Z,69.70
2017-07-17T14:19:04.918Z,62.00
2017-07-17T14:21:32.369Z,61.00
2017-07-17T14:23:59.822Z,58.50
2017-07-17T14:26:27.462Z,58.10
2017-07-17T14:28:54.899Z,59.30
2017-07-17T14:31:22.345Z,65.40
2017-07-17T14:33:49.797Z,70.90
2017-07-17T14:36:17.230Z,70.00
2017-07-17T14:38:45.068Z,68.60
2017-07-17T14:41:12.545Z,68.60
2017-07-17T14:43:39.988Z,67.90
2017-07-17T14:46:07.428Z,69.00
2017-07-17T14:48:34.897Z,68.60
2017-07-17T14:51:02.589Z,71.10
2017-07-17T14:53:30.028Z,70.50
2017-07-17T14:55:57.865Z,71.20
2017-07-17T14:58:25.387Z,72.30
2017-07-17T15:00:52.832Z,72.00
2017-07-17T15:03:20.308Z,73.20
2017-07-17T15:05:48.479Z,73.10
2017-07-17T15:08:15.922Z,73.00
2017-07-17T15:10:43.613Z,72.90
2017-07-17T15:13:11.052Z,73.20
2017-07-17T15:15:38.492Z,73.70
2017-07-17T15:18:05.964Z,74.30
2017-07-17T15:20:33.404Z,75.00
2017-07-17T15:23:00.840Z,76.10
2017-07-17T15:25:28.318Z,76.40
2017-07-17T15:27:55.744Z,75.80
2017-07-17T15:30:23.179Z,76.60
2017-07-17T15:32:51.028Z,77.50
2017-07-17T15:35:18.471Z,77.50
2017-07-17T15:37:45.910Z,77.50
2017-07-17T15:40:13.386Z,76.70
2017-07-17T15:42:40.825Z,77.70
2017-07-17T15:45:08.259Z,77.70
2017-07-17T15:47:35.780Z,76.60
2017-07-17T15:50:03.624Z,77.80
2017-07-17T15:52:31.080Z,77.80
2017-07-17T15:54:58.563Z,78.10
2017-07-17T15:57:26.404Z,78.10
2017-07-17T15:59:53.850Z,78.10
2017-07-17T16:02:21.320Z,79.10
2017-07-17T16:04:49.252Z,80.10
2017-07-17T16:07:16.703Z,80.30
2017-07-17T16:09:44.893Z,80.40
2017-07-17T16:12:12.364Z,80.80
2017-07-17T16:14:40.430Z,81.20
2017-07-17T16:17:08.253Z,81.20
2017-07-17T16:19:35.700Z,81.40
2017-07-17T16:22:03.410Z,82.10
2017-07-17T16:24:30.853Z,83.00
2017-07-17T16:26:58.304Z,83.40
2017-07-17T16:29:25.764Z,83.70
2017-07-17T16:31:53.237Z,84.30
2017-07-17T16:34:21.514Z,84.80
2017-07-17T16:36:49.254Z,85.30
2017-07-17T16:39:16.699Z,85.20
2017-07-17T16:41:44.143Z,85.40
2017-07-17T16:44:11.625Z,86.00
2017-07-17T16:46:39.085Z,87.10
2017-07-17T16:49:06.531Z,87.40
2017-07-17T16:51:35.342Z,87.40
2017-07-17T16:54:03.140Z,88.10
2017-07-17T16:56:30.610Z,88.60
2017-07-17T16:58:58.056Z,87.10
2017-07-17T17:01:25.852Z,86.30
2017-07-17T17:03:53.298Z,86.80
2017-07-17T17:06:20.754Z,85.90
2017-07-17T17:08:48.228Z,85.90
2017-07-17T17:11:15.682Z,86.30
2017-07-17T17:13:43.140Z,86.20
2017-07-17T17:16:10.712Z,85.80
2017-07-17T17:18:38.170Z,84.80
2017-07-17T17:21:05.880Z,83.90
2017-07-17T17:23:33.354Z,84.30
2017-07-17T17:26:00.824Z,83.00
2017-07-17T17:28:28.273Z,82.10
2017-07-17T17:30:56.043Z,81.70
2017-07-17T17:33:23.491Z,81.50
2017-07-17T17:35:51.784Z,81.90
2017-07-17T17:38:19.418Z,82.10
2017-07-17T17:40:46.868Z,82.70
2017-07-17T17:43:14.308Z,83.40
2017-07-17T17:45:41.785Z,83.40
2017-07-17T17:48:09.242Z,83.50
2017-07-17T17:50:36.689Z,83.60
2017-07-17T17:53:04.162Z,83.90
2017-07-17T17:55:31.632Z,83.90
2017-07-17T17:57:59.486Z,84.80
2017-07-17T18:00:27.847Z,84.90
2017-07-17T18:02:55.303Z,85.40
2017-07-17T18:05:22.775Z,85.90
2017-07-17T18:07:50.250Z,87.00
2017-07-17T18:10:18.118Z,88.00
2017-07-17T18:15:20.189Z,88.40
2017-07-17T18:17:48.038Z,88.70
2017-07-17T18:20:15.486Z,88.70
2017-07-17T18:22:43.267Z,89.00
2017-07-17T18:25:11.132Z,89.20
2017-07-17T18:27:38.574Z,89.20
2017-07-17T18:30:06.617Z,89.30
2017-07-17T18:32:34.075Z,89.40
2017-07-17T18:35:01.545Z,89.70
2017-07-17T18:37:29.161Z,90.00
2017-07-17T18:39:56.624Z,90.50
2017-07-17T18:42:24.073Z,90.80
2017-07-17T18:44:51.565Z,91.40
2017-07-17T18:47:18.996Z,91.40
2017-07-17T18:49:46.457Z,91.90
2017-07-17T18:52:13.917Z,92.20
2017-07-17T18:54:41.359Z,92.40
2017-07-17T18:57:09.108Z,92.60
2017-07-17T18:59:36.593Z,92.80
2017-07-17T19:02:04.024Z,93.10
2017-07-17T19:04:31.474Z,93.60
2017-07-17T19:06:59.849Z,93.70
2017-07-17T19:09:27.346Z,93.90
2017-07-17T19:11:54.818Z,94.00
2017-07-17T19:14:22.568Z,94.10
2017-07-17T19:16:50.050Z,94.50
2017-07-17T19:19:17.602Z,94.50
2017-07-17T19:21:45.477Z,95.10
2017-07-17T19:24:12.932Z,95.50
2017-07-17T19:26:40.382Z,96.00
2017-07-17T19:29:07.852Z,96.30
2017-07-17T19:31:35.308Z,97.00
2017-07-17T19:34:02.782Z,96.70
2017-07-17T19:36:30.583Z,96.80
2017-07-17T19:38:58.040Z,97.00
2017-07-17T19:41:25.499Z,97.40
2017-07-17T19:43:52.989Z,97.80
2017-07-17T19:46:20.473Z,98.10
2017-07-17T19:48:47.921Z,98.20
2017-07-17T19:51:15.780Z,98.20
2017-07-17T19:53:43.259Z,98.20
2017-07-17T19:56:10.713Z,98.20
2017-07-17T19:58:38.398Z,98.20
2017-07-17T20:01:05.853Z,98.20
2017-07-17T20:03:33.364Z,98.20
2017-07-17T20:06:00.929Z,98.20
2017-07-17T20:08:28.392Z,98.20
2017-07-17T20:10:55.845Z,98.20
2017-07-17T20:13:23.763Z,98.20
2017-07-17T20:15:52.738Z,98.20
2017-07-17T20:18:20.607Z,98.20
2017-07-17T20:20:48.082Z,98.20
2017-07-17T20:23:15.554Z,98.20
2017-07-17T20:25:43.011Z,98.20
2017-07-17T20:28:10.678Z,98.20
2017-07-17T20:30:38.139Z,98.20
2017-07-17T20:33:05.621Z,98.20
2017-07-17T20:35:34.286Z,98.20
2017-07-17T20:38:01.743Z,98.20
2017-07-17T20:40:29.211Z,98.20
2017-07-17T20:42:57.391Z,98.20
2017-07-17T20:45:24.831Z,98.20
2017-07-17T20:47:52.278Z,98.20
2017-07-17T20:50:19.751Z,98.20
2017-07-17T20:52:47.736Z,98.20
2017-07-17T20:55:15.190Z,98.20
2017-07-17T20:57:42.771Z,98.20
2017-07-17T21:00:10.620Z,98.20
2017-07-17T21:02:38.484Z,98.20
2017-07-17T21:05:06.471Z,98.20
2017-07-17T21:07:33.930Z,98.20
2017-07-17T21:10:01.378Z,98.20
2017-07-17T21:12:29.179Z,98.20
2017-07-17T21:14:56.625Z,98.20
2017-07-17T21:17:24.082Z,98.20
2017-07-17T21:19:51.555Z,98.20
2017-07-17T21:22:19.919Z,98.20
2017-07-17T21:24:47.388Z,98.20
2017-07-17T21:27:15.463Z,98.20
2017-07-17T21:29:42.904Z,98.20
2017-07-17T21:32:10.361Z,98.20
2017-07-17T21:34:38.154Z,98.20
2017-07-17T21:37:05.587Z,98.20
2017-07-17T21:39:33.042Z,98.20
2017-07-17T21:42:00.748Z,98.20
2017-07-17T21:44:28.187Z,98.20
2017-07-17T21:46:56.029Z,98.20
2017-07-17T21:49:23.483Z,98.20
2017-07-17T21:51:50.943Z,98.20
2017-07-17T21:54:18.394Z,98.20
2017-07-17T21:56:45.858Z,98.20
2017-07-17T21:59:13.314Z,98.20
2017-07-17T22:01:40.757Z,98.20
2017-07-17T22:04:08.212Z,98.20
2017-07-17T22:06:35.665Z,98.20
2017-07-17T22:09:03.122Z,98.20
2017-07-17T22:11:30.774Z,98.20
2017-07-17T22:13:58.229Z,98.20
2017-07-17T22:16:25.669Z,98.20
2017-07-17T22:18:53.351Z,98.20
2017-07-17T22:21:20.802Z,98.20
2017-07-17T22:23:48.252Z,98.20
2017-07-17T22:26:16.025Z,98.20
2017-07-17T22:28:43.865Z,98.20
2017-07-17T22:31:11.320Z,98.20
2017-07-17T22:33:38.891Z,98.20
2017-07-17T22:36:06.336Z,98.20
2017-07-17T22:38:33.786Z,98.20
2017-07-17T22:41:01.485Z,98.20
2017-07-17T22:43:29.312Z,98.20
2017-07-17T22:45:56.755Z,98.20
2017-07-17T22:48:24.228Z,98.20
2017-07-17T22:50:51.671Z,98.20
2017-07-17T22:53:19.107Z,98.20
2017-07-17T22:55:46.586Z,98.20
2017-07-17T22:58:14.030Z,98.20
2017-07-17T23:00:41.480Z,98.20
2017-07-17T23:03:08.942Z,98.20
2017-07-17T23:05:36.380Z,98.20
2017-07-17T23:08:03.815Z,98.20
2017-07-17T23:10:31.679Z,98.20
2017-07-17T23:12:59.521Z,98.20
2017-07-17T23:15:26.976Z,98.20
2017-07-17T23:17:54.434Z,98.20
2017-07-17T23:20:21.894Z,98.20
2017-07-17T23:22:49.333Z,98.20
2017-07-17T23:25:16.808Z,98.20
2017-07-17T23:27:44.253Z,98.20
2017-07-17T23:30:11.870Z,98.20
2017-07-17T23:32:39.496Z,98.20
2017-07-17T23:35:07.341Z,98.20
2017-07-17T23:37:34.779Z,98.20
2017-07-17T23:40:02.271Z,98.20
2017-07-17T23:42:29.700Z,98.20
2017-07-17T23:44:57.809Z,98.20
2017-07-17T23:47:25.263Z,98.20
2017-07-17T23:49:52.702Z,98.20
2017-07-17T23:52:20.546Z,98.20
2017-07-17T23:54:48.090Z,98.20
2017-07-17T23:57:15.523Z,98.20
2017-07-17T23:59:42.967Z,98.20
